Time;durP1;ratioP1;P1;durP2;ratioP2;P2;SDS_P1;SDS_P2;PMS_P1;PMS_P2;Temp;Humidity;BMP_temperature;BMP_pressure;BME280_temperature;BME280_humidity;BME280_pressure;Samples;Min_cycle;Max_cycle;Signal;HPM_P1;HPM_P2
2023/06/13 00:00:13;;;;;;;16.10;12.63;;;;;;;29.17;74.24;100670.31;5033504;28;66007;-42
2023/06/13 00:02:46;;;;;;;21.33;11.98;;;;;;;29.17;73.66;100665.75;5033838;28;69271;-41
2023/06/13 00:05:21;;;;;;;14.27;12.82;;;;;;;29.11;74.10;100657.66;5034587;28;66202;-40
2023/06/13 00:07:52;;;;;;;10.55;9.60;;;;;;;29.08;73.98;100649.97;5031489;28;69632;-42
2023/06/13 00:10:24;;;;;;;9.20;8.47;;;;;;;29.12;74.59;100667.44;5036276;28;66177;-41
2023/06/13 00:12:55;;;;;;;15.10;8.63;;;;;;;29.25;74.09;100675.47;5037698;28;70658;-41
2023/06/13 00:15:26;;;;;;;12.63;8.68;;;;;;;29.19;73.95;100652.00;5036265;28;66464;-43
2023/06/13 00:17:57;;;;;;;13.77;8.77;;;;;;;29.43;73.26;100679.34;5035874;28;69160;-41
2023/06/13 00:20:30;;;;;;;9.10;8.50;;;;;;;29.50;73.98;100677.44;5036383;28;65580;-42
2023/06/13 00:23:03;;;;;;;9.10;8.45;;;;;;;29.39;73.14;100658.16;5030249;28;70147;-42
2023/06/13 00:25:35;;;;;;;13.15;7.95;;;;;;;29.62;72.96;100690.06;5031868;28;65784;-43
2023/06/13 00:28:07;;;;;;;10.48;7.80;;;;;;;29.68;73.52;100698.38;5028693;28;70199;-43
2023/06/13 00:30:39;;;;;;;7.38;6.70;;;;;;;29.73;70.71;100691.28;5039586;28;65683;-40
2023/06/13 00:33:17;;;;;;;7.57;7.15;;;;;;;29.66;70.38;100674.25;5034787;28;70157;-41
2023/06/13 00:35:48;;;;;;;7.15;6.60;;;;;;;29.72;69.91;100688.78;5047575;28;66741;-41
2023/06/13 00:38:21;;;;;;;10.80;6.37;;;;;;;29.82;69.64;100700.78;5036779;28;69825;-42
2023/06/13 00:40:52;;;;;;;11.93;6.20;;;;;;;29.83;69.72;100691.59;5044041;28;66782;-41
2023/06/13 00:43:26;;;;;;;6.97;6.43;;;;;;;29.44;69.03;100637.75;5037961;28;70415;-41
2023/06/13 00:46:00;;;;;;;7.32;6.18;;;;;;;29.90;68.83;100718.63;5036799;28;66312;-41
2023/06/13 00:48:33;;;;;;;6.50;6.03;;;;;;;29.55;69.15;100661.41;5034237;28;70186;-41
2023/06/13 00:51:05;;;;;;;6.88;6.40;;;;;;;29.29;68.57;100614.56;5037959;28;65740;-41
2023/06/13 00:53:36;;;;;;;7.38;6.40;;;;;;;29.94;68.26;100721.72;5040335;28;69156;-41
2023/06/13 00:56:08;;;;;;;6.80;6.30;;;;;;;29.96;68.16;100725.03;5040168;28;66414;-43
2023/06/13 00:58:39;;;;;;;;;;;;;;;29.68;69.43;100726.25;5039016;28;69892;-41
2023/06/13 01:01:11;;;;;;;6.13;5.63;;;;;;;29.86;68.07;100705.75;5040789;28;66568;-44
2023/06/13 01:03:45;;;;;;;6.70;6.07;;;;;;;30.00;67.86;100727.06;5040407;28;70250;-39
2023/06/13 01:06:17;;;;;;;6.88;6.28;;;;;;;29.95;67.48;100708.00;5041389;28;66628;-39
2023/06/13 01:08:58;;;;;;;8.18;6.07;;;;;;;29.39;67.22;100620.34;5039071;28;70205;-41
2023/06/13 01:11:48;;;;;;;6.35;6.00;;;;;;;29.38;67.26;100629.47;5031053;28;66025;-40
2023/06/13 01:14:36;;;;;;;6.32;5.90;;;;;;;30.06;67.05;100728.06;5051841;28;71471;-41
2023/06/13 01:17:18;;;;;;;6.88;6.25;;;;;;;29.34;67.31;100605.81;5036505;28;65911;-40
2023/06/13 01:19:59;;;;;;;6.70;6.30;;;;;;;29.60;67.09;100653.47;5017764;28;69064;-43
2023/06/13 01:23:02;;;;;;;6.70;6.22;;;;;;;29.99;67.51;100725.44;5059803;28;65227;-42
2023/06/13 01:25:59;;;;;;;5.85;5.45;;;;;;;30.02;67.69;100716.88;5036464;28;69567;-40
2023/06/13 01:28:35;;;;;;;6.70;6.25;;;;;;;29.65;67.36;100639.34;5025669;28;66108;-40
2023/06/13 01:31:10;;;;;;;7.20;6.65;;;;;;;29.90;66.69;100679.94;5056988;28;69800;-41
2023/06/13 01:33:44;;;;;;;6.45;6.05;;;;;;;30.16;66.64;100714.06;5055833;28;65827;-39
2023/06/13 01:36:15;;;;;;;6.68;6.28;;;;;;;30.10;66.86;100723.91;5033986;28;69424;-41
2023/06/13 01:38:47;;;;;;;6.55;6.05;;;;;;;30.11;66.66;100730.13;5057009;28;66000;-41
2023/06/13 01:41:18;;;;;;;6.78;6.38;;;;;;;30.16;66.40;100738.44;5054866;28;68966;-41
2023/06/13 01:43:50;;;;;;;6.65;6.05;;;;;;;29.98;66.65;100717.53;5058501;28;65922;-40
2023/06/13 01:46:27;;;;;;;6.88;6.47;;;;;;;30.17;66.70;100735.53;5034094;28;70287;-42
2023/06/13 01:49:16;;;;;;;6.57;6.15;;;;;;;30.13;66.42;100742.41;5035309;28;65107;-42
2023/06/13 01:52:08;;;;;;;6.97;6.47;;;;;;;30.22;66.31;100748.41;5053337;28;70909;-42
2023/06/13 01:54:45;;;;;;;7.10;6.60;;;;;;;29.67;66.10;100657.00;5058254;28;65678;-43
2023/06/13 01:57:23;;;;;;;6.53;6.13;;;;;;;29.72;66.18;100662.56;5041496;28;70663;-39
2023/06/13 01:59:56;;;;;;;6.97;6.57;;;;;;;30.14;66.27;100727.81;5041313;28;66213;-41
2023/06/13 02:02:28;;;;;;;7.30;6.70;;;;;;;30.17;65.94;100724.69;5047572;28;70550;-40
2023/06/13 02:04:59;;;;;;;;;;;;;;;30.00;67.46;100740.59;5041228;28;65922;-43
2023/06/13 02:07:31;;;;;;;6.45;6.05;;;;;;;30.19;66.62;100733.41;5057466;28;69754;-41
2023/06/13 02:10:07;;;;;;;7.18;6.57;;;;;;;30.30;66.05;100750.00;5025850;28;65185;-40
2023/06/13 02:12:39;;;;;;;7.00;6.50;;;;;;;30.31;65.81;100754.38;5034508;28;70006;-43
2023/06/13 02:15:11;;;;;;;7.60;7.10;;;;;;;30.37;65.69;100758.91;5040741;28;65593;-42
2023/06/13 02:17:42;;;;;;;7.50;7.00;;;;;;;30.23;66.04;100737.38;5050100;28;69721;-42
2023/06/13 02:20:14;;;;;;;7.18;6.70;;;;;;;30.23;66.39;100740.06;5047462;28;65278;-43
2023/06/13 02:22:46;;;;;;;7.18;6.78;;;;;;;30.43;65.55;100764.28;5050355;28;70505;-41
2023/06/13 02:25:18;;;;;;;7.47;6.53;;;;;;;30.35;65.49;100742.06;5040534;28;66621;-42
2023/06/13 02:27:48;;;;;;;;;;;;;;;30.13;66.35;100755.91;5034861;28;69630;-39
2023/06/13 02:30:20;;;;;;;7.18;6.70;;;;;;;30.42;66.06;100753.66;5059168;28;65982;-40
2023/06/13 02:32:52;;;;;;;7.40;6.80;;;;;;;30.45;65.61;100751.38;5051723;28;69908;-41
2023/06/13 02:35:24;;;;;;;7.28;6.78;;;;;;;30.46;65.47;100749.47;5038918;28;65286;-42
2023/06/13 02:37:56;;;;;;;7.10;6.45;;;;;;;30.50;65.77;100762.31;5057205;28;71040;-41
2023/06/13 02:40:27;;;;;;;7.35;6.85;;;;;;;30.53;65.89;100766.47;5059052;28;66718;-41
2023/06/13 02:42:58;;;;;;;7.13;6.60;;;;;;;30.54;65.63;100768.16;5058812;28;70037;-41
2023/06/13 02:45:30;;;;;;;7.83;7.33;;;;;;;30.57;65.14;100770.41;5056325;28;66479;-41
2023/06/13 02:48:01;;;;;;;7.20;6.70;;;;;;;30.58;65.16;100763.94;5045351;28;69991;-42
2023/06/13 02:50:32;;;;;;;7.15;6.65;;;;;;;30.58;65.25;100769.34;5063002;28;65437;-41
2023/06/13 02:53:05;;;;;;;7.43;6.63;;;;;;;30.62;65.13;100770.59;5059607;28;70511;-43
2023/06/13 02:55:36;;;;;;;7.22;6.72;;;;;;;30.65;65.52;100764.72;5057123;28;66324;-40
2023/06/13 02:58:08;;;;;;;7.57;7.05;;;;;;;30.61;65.20;100752.66;5052087;28;68992;-41
2023/06/13 03:00:40;;;;;;;6.70;6.30;;;;;;;30.49;65.45;100738.22;5045207;28;66575;-43
2023/06/13 03:03:16;;;;;;;7.65;6.38;;;;;;;30.70;65.37;100767.59;5041517;28;70012;-40
2023/06/13 03:05:48;;;;;;;7.57;7.18;;;;;;;30.72;65.35;100765.47;5040934;28;65713;-40
2023/06/13 03:08:20;;;;;;;7.65;6.82;;;;;;;30.70;65.13;100756.78;5043117;28;69707;-40
2023/06/13 03:10:51;;;;;;;;;;;;;;;30.47;65.79;100761.94;5041151;28;66883;-40
2023/06/13 03:13:24;;;;;;;;;;;;;;;30.44;66.40;100757.81;5043481;28;70058;-41
2023/06/13 03:15:57;;;;;;;7.13;6.32;;;;;;;30.75;65.16;100752.56;5047070;28;66522;-41
2023/06/13 03:18:32;;;;;;;6.93;6.43;;;;;;;30.82;65.26;100753.38;5043736;28;70480;-43
2023/06/13 03:21:05;;;;;;;6.65;6.15;;;;;;;30.68;65.05;100726.38;5033520;28;66610;-41
2023/06/13 03:23:36;;;;;;;7.30;6.90;;;;;;;30.90;64.76;100744.94;5039141;28;70458;-40
2023/06/13 03:26:09;;;;;;;7.20;6.70;;;;;;;30.92;64.85;100732.84;5042046;28;66101;-41
2023/06/13 03:28:43;;;;;;;7.00;6.53;;;;;;;30.98;65.10;100741.09;5040503;28;70094;-40
2023/06/13 03:31:16;;;;;;;6.80;6.28;;;;;;;30.91;64.81;100724.94;5041984;28;65644;-48
2023/06/13 03:33:48;;;;;;;6.88;6.47;;;;;;;30.77;64.79;100693.59;5040763;28;70153;-41
2023/06/13 03:36:19;;;;;;;7.50;6.90;;;;;;;31.03;64.41;100739.38;5023343;28;66409;-43
2023/06/13 03:38:51;;;;;;;6.97;6.47;;;;;;;30.89;64.38;100708.88;5040715;28;69440;-43
2023/06/13 03:41:23;;;;;;;6.47;6.03;;;;;;;31.12;64.34;100739.91;5037297;28;65343;-43
2023/06/13 03:43:55;;;;;;;6.67;6.17;;;;;;;31.12;64.75;100742.59;5043934;28;69912;-42
2023/06/13 03:46:25;;;;;;;;;;;;;;;30.87;65.31;100739.94;5053262;28;66215;-41
2023/06/13 03:48:56;;;;;;;6.90;6.20;;;;;;;30.97;64.37;100713.19;5041255;28;70562;-40
2023/06/13 03:51:29;;;;;;;;;;;;;;;30.90;64.91;100747.66;5041769;28;66833;-40
2023/06/13 03:54:00;;;;;;;5.85;5.55;;;;;;;31.06;64.84;100733.50;5058724;28;69906;-42
2023/06/13 03:56:33;;;;;;;6.80;6.43;;;;;;;31.25;64.43;100757.91;5057689;28;66191;-39
2023/06/13 03:59:04;;;;;;;6.82;6.22;;;;;;;31.25;64.59;100749.78;5063956;28;70215;-42
2023/06/13 04:01:36;;;;;;;6.10;5.80;;;;;;;31.31;64.25;100754.28;5041965;28;65689;-48
2023/06/13 04:04:12;;;;;;;7.03;6.63;;;;;;;31.33;64.26;100754.91;5039289;28;70367;-43
2023/06/13 04:06:47;;;;;;;6.10;5.70;;;;;;;31.20;64.32;100733.34;5055139;28;66450;-42
2023/06/13 04:09:20;;;;;;;6.20;5.80;;;;;;;31.39;64.28;100767.56;5031631;28;69397;-40
2023/06/13 04:11:51;;;;;;;6.35;5.95;;;;;;;31.37;64.31;100750.69;5057157;28;66462;-43
2023/06/13 04:14:22;;;;;;;6.47;6.07;;;;;;;31.44;63.91;100753.34;5059015;28;70394;-42
2023/06/13 04:16:54;;;;;;;6.15;5.65;;;;;;;31.41;64.11;100738.34;5038421;28;66252;-41
2023/06/13 04:19:25;;;;;;;6.85;6.25;;;;;;;31.53;63.93;100752.78;5058696;28;70605;-44
2023/06/13 04:21:59;;;;;;;6.25;5.82;;;;;;;31.54;63.44;100754.47;5056784;28;66307;-43
2023/06/13 04:24:31;;;;;;;6.05;5.55;;;;;;;31.57;63.92;100754.00;5044779;28;70293;-43
2023/06/13 04:27:03;;;;;;;6.30;5.90;;;;;;;31.55;63.71;100734.41;5039232;28;66070;-44
2023/06/13 04:29:35;;;;;;;5.88;5.40;;;;;;;31.67;63.53;100756.16;5053309;28;68713;-41
2023/06/13 04:32:17;;;;;;;5.25;4.95;;;;;;;31.71;63.59;100751.94;5030520;28;66153;-42
2023/06/13 04:34:52;;;;;;;7.00;5.57;;;;;;;31.73;63.70;100749.00;5054661;28;70383;-43
2023/06/13 04:37:25;;;;;;;6.07;5.57;;;;;;;31.76;63.49;100745.81;5050256;28;65709;-41
2023/06/13 04:39:57;;;;;;;5.57;5.18;;;;;;;31.75;63.51;100731.44;5057695;28;69566;-42
2023/06/13 04:42:29;;;;;;;5.63;5.22;;;;;;;31.85;63.39;100740.94;5055527;28;65704;-43
2023/06/13 04:45:00;;;;;;;5.18;4.88;;;;;;;31.87;63.32;100736.91;5054275;28;69650;-41
2023/06/13 04:47:33;;;;;;;5.30;5.00;;;;;;;31.88;63.17;100730.44;5034543;28;65330;-43
2023/06/13 04:50:25;;;;;;;5.80;5.45;;;;;;;31.48;63.12;100651.50;5065541;28;69835;-43
2023/06/13 04:52:57;;;;;;;5.68;5.30;;;;;;;31.85;63.07;100706.50;5051717;28;66595;-44
2023/06/13 04:55:32;;;;;;;5.32;5.03;;;;;;;31.95;63.10;100720.31;5061696;28;70616;-43
2023/06/13 04:58:04;;;;;;;4.63;4.43;;;;;;;32.01;63.20;100724.84;5060979;28;66945;-40
2023/06/13 05:00:35;;;;;;;5.25;4.88;;;;;;;32.07;62.96;100724.97;5052520;28;69695;-42
2023/06/13 05:03:07;;;;;;;4.77;4.47;;;;;;;32.07;62.85;100709.53;5033278;28;66561;-43
2023/06/13 05:05:38;;;;;;;7.13;4.95;;;;;;;32.00;62.80;100697.94;5058028;28;69504;-42
2023/06/13 05:08:13;;;;;;;5.25;4.95;;;;;;;31.74;62.92;100644.91;5057037;28;66344;-43
2023/06/13 05:10:44;;;;;;;4.88;4.57;;;;;;;32.18;62.85;100724.16;5057586;28;69851;-43
2023/06/13 05:13:16;;;;;;;4.95;4.65;;;;;;;32.10;62.99;100700.09;5059009;28;65553;-43
2023/06/13 05:15:47;;;;;;;5.28;4.88;;;;;;;32.19;63.07;100709.53;5039831;28;69550;-42
2023/06/13 05:18:20;;;;;;;5.07;4.78;;;;;;;32.12;62.92;100692.53;5061842;28;65246;-42
2023/06/13 05:20:51;;;;;;;4.68;4.28;;;;;;;32.19;63.11;100704.13;5060081;28;70545;-43
2023/06/13 05:23:23;;;;;;;5.00;4.70;;;;;;;32.17;63.04;100706.22;5058700;28;65346;-43
2023/06/13 05:25:55;;;;;;;5.00;4.65;;;;;;;32.22;62.88;100698.22;5058378;28;69662;-40
2023/06/13 05:28:26;;;;;;;4.90;4.60;;;;;;;32.21;62.88;100699.28;5058982;28;66496;-41
2023/06/13 05:30:58;;;;;;;;;;;;;;;31.93;63.46;100700.75;5057111;28;70481;-40
2023/06/13 05:33:30;;;;;;;4.80;4.60;;;;;;;31.85;63.26;100630.53;5055262;28;66883;-43
2023/06/13 05:36:01;;;;;;;4.65;4.35;;;;;;;32.20;63.27;100681.34;5058095;28;69273;-42
2023/06/13 05:38:33;;;;;;;5.30;4.90;;;;;;;32.24;62.94;100677.09;5057983;28;66252;-41
2023/06/13 05:41:05;;;;;;;6.70;4.80;;;;;;;32.21;63.14;100672.16;5056678;28;70713;-41
2023/06/13 05:43:35;;;;;;;;;;;;;;;31.99;63.62;100675.41;5057576;28;66363;-40
2023/06/13 05:46:06;;;;;;;4.93;4.53;;;;;;;32.23;63.36;100668.16;5063278;28;69942;-42
2023/06/13 05:48:37;;;;;;;7.83;4.83;;;;;;;32.31;63.15;100661.50;5040675;28;66045;-43
2023/06/13 05:51:09;;;;;;;6.72;4.40;;;;;;;32.30;62.97;100657.16;5035891;28;68829;-41
2023/06/13 05:53:41;;;;;;;4.90;4.50;;;;;;;32.18;63.03;100621.03;5060221;28;65482;-43
2023/06/13 05:56:12;;;;;;;4.95;4.53;;;;;;;32.32;63.02;100648.75;5060318;28;70228;-42
2023/06/13 05:58:47;;;;;;;5.43;4.93;;;;;;;32.33;62.50;100640.41;5058395;28;66246;-42
2023/06/13 06:01:21;;;;;;;4.68;4.38;;;;;;;32.46;62.91;100645.63;5040377;28;70282;-41
2023/06/13 06:03:52;;;;;;;4.63;4.32;;;;;;;32.49;62.74;100641.63;5041931;28;66400;-42
2023/06/13 06:06:23;;;;;;;4.20;3.90;;;;;;;32.51;62.71;100644.06;5057496;28;69690;-39
2023/06/13 06:08:55;;;;;;;4.13;3.93;;;;;;;32.54;62.85;100639.03;5061426;28;66202;-40
2023/06/13 06:11:26;;;;;;;4.72;4.43;;;;;;;32.56;62.54;100633.34;5058017;28;69173;-41
2023/06/13 06:13:58;;;;;;;4.85;4.50;;;;;;;32.59;62.67;100622.00;5057864;28;66579;-39
2023/06/13 06:16:29;;;;;;;4.07;3.70;;;;;;;32.42;62.64;100595.53;5033607;28;69880;-40
2023/06/13 06:19:00;;;;;;;;;;;;;;;32.36;63.15;100618.22;5054487;28;66469;-41
2023/06/13 06:21:32;;;;;;;4.30;4.07;;;;;;;32.64;62.55;100619.41;5062083;28;71004;-43
2023/06/13 06:24:03;;;;;;;4.55;4.13;;;;;;;32.59;62.77;100583.97;5039327;28;66301;-43
2023/06/13 06:26:34;;;;;;;;;;;;;;;32.44;63.04;100589.88;5058213;28;69864;-40
2023/06/13 06:29:06;;;;;;;4.47;4.10;;;;;;;32.71;62.63;100588.34;5066156;28;66913;-42
2023/06/13 06:31:37;;;;;;;4.65;4.25;;;;;;;32.69;62.22;100578.78;5056823;28;70100;-42
2023/06/13 06:34:08;;;;;;;3.97;3.78;;;;;;;32.80;62.31;100580.63;5042937;28;66122;-43
2023/06/13 06:36:39;;;;;;;4.28;3.97;;;;;;;32.81;62.46;100586.88;5062326;28;69078;-42
2023/06/13 06:39:11;;;;;;;3.93;3.63;;;;;;;32.82;62.41;100589.38;5064974;28;65821;-42
2023/06/13 06:41:42;;;;;;;4.10;3.65;;;;;;;32.85;62.45;100572.59;5069776;28;70445;-42
2023/06/13 06:44:14;;;;;;;3.80;3.60;;;;;;;32.84;62.29;100560.06;5062093;28;65280;-41
2023/06/13 06:46:46;;;;;;;3.72;3.53;;;;;;;32.93;62.05;100547.75;5058914;28;70574;-42
2023/06/13 06:49:18;;;;;;;3.70;3.50;;;;;;;32.96;62.06;100551.88;5061629;28;66189;-41
2023/06/13 06:51:49;;;;;;;3.55;3.33;;;;;;;32.98;61.81;100555.16;5060653;28;69699;-41
2023/06/13 06:54:21;;;;;;;3.65;3.45;;;;;;;33.02;62.10;100556.38;5059777;28;66462;-41
2023/06/13 06:56:52;;;;;;;4.10;3.80;;;;;;;33.01;61.69;100548.44;5053837;28;70437;-41
2023/06/13 06:59:23;;;;;;;4.25;4.05;;;;;;;33.08;61.96;100560.00;5062894;28;65510;-41
2023/06/13 07:01:55;;;;;;;5.28;3.95;;;;;;;32.96;61.72;100541.00;5063634;28;70160;-41
2023/06/13 07:04:26;;;;;;;3.72;3.53;;;;;;;33.10;61.59;100557.88;5064363;28;66193;-42
2023/06/13 07:06:58;;;;;;;3.47;3.28;;;;;;;33.03;61.75;100535.44;5040430;28;70013;-41
2023/06/13 07:09:29;;;;;;;3.65;3.35;;;;;;;33.15;61.66;100533.50;5064205;28;66354;-43
2023/06/13 07:12:01;;;;;;;3.50;3.20;;;;;;;33.12;61.33;100504.91;5061873;28;70047;-41
2023/06/13 07:14:33;;;;;;;3.72;3.53;;;;;;;33.19;61.44;100506.66;5055713;28;66423;-41
2023/06/13 07:17:04;;;;;;;3.42;3.22;;;;;;;33.25;61.50;100511.94;5056578;28;70042;-39
2023/06/13 07:19:35;;;;;;;6.55;3.63;;;;;;;33.28;61.16;100516.88;5033148;28;66130;-43
2023/06/13 07:22:07;;;;;;;6.13;3.53;;;;;;;33.31;61.13;100527.25;5055527;28;69148;-40
2023/06/13 07:24:38;;;;;;;3.97;3.78;;;;;;;33.29;60.86;100526.69;5060537;28;65114;-41
2023/06/13 07:27:10;;;;;;;4.13;3.88;;;;;;;33.35;61.01;100544.75;5041890;28;70345;-41
2023/06/13 07:29:42;;;;;;;4.00;3.70;;;;;;;33.31;60.84;100527.25;5056366;28;66681;-41
2023/06/13 07:32:13;;;;;;;;;;;;;;;33.12;61.36;100534.81;5057007;28;70159;-39
2023/06/13 07:34:45;;;;;;;4.00;3.70;;;;;;;33.40;60.94;100529.56;5057644;28;66255;-42
2023/06/13 07:37:35;;;;;;;3.83;3.63;;;;;;;33.24;61.01;100493.13;5053243;28;70516;-41
2023/06/13 07:40:08;;;;;;;3.63;3.42;;;;;;;33.31;60.76;100491.91;5059400;28;66059;-42
2023/06/13 07:42:39;;;;;;;3.88;3.58;;;;;;;33.44;60.42;100509.00;5048915;28;70357;-41
2023/06/13 07:45:10;;;;;;;;;;;;;;;33.22;61.19;100504.28;5059352;28;66215;-40
2023/06/13 07:47:42;;;;;;;4.47;3.38;;;;;;;33.05;60.91;100444.47;5057538;28;69947;-41
2023/06/13 07:50:13;;;;;;;3.95;3.65;;;;;;;33.39;60.65;100496.13;5056895;28;65508;-41
2023/06/13 07:52:44;;;;;;;;;;;;;;;33.26;60.98;100508.13;5043029;28;69700;-42
2023/06/13 07:55:15;;;;;;;3.58;3.38;;;;;;;33.54;60.88;100501.88;5056403;28;65815;-41
2023/06/13 07:57:47;;;;;;;5.28;3.78;;;;;;;33.55;60.68;100499.97;5057811;28;68945;-40
2023/06/13 08:00:22;;;;;;;4.60;3.60;;;;;;;33.59;60.30;100501.09;5060703;28;66754;-40
2023/06/13 08:02:55;;;;;;;7.43;3.28;;;;;;;33.48;60.61;100477.50;5058573;28;70790;-41
2023/06/13 08:05:26;;;;;;;3.33;3.13;;;;;;;33.47;60.67;100465.81;5050740;28;66380;-40
2023/06/13 08:07:58;;;;;;;;;;;;;;;33.36;60.58;100483.03;5060896;28;70361;-41
2023/06/13 08:10:29;;;;;;;3.33;3.13;;;;;;;33.63;60.35;100480.50;5061087;28;65844;-43
2023/06/13 08:13:01;;;;;;;4.97;3.50;;;;;;;33.60;60.37;100461.97;5057955;28;70463;-39
2023/06/13 08:15:36;;;;;;;3.45;3.25;;;;;;;33.68;60.16;100472.41;5044480;28;66492;-41
2023/06/13 08:18:08;;;;;;;3.90;3.70;;;;;;;33.67;60.25;100478.94;5058295;28;69434;-42
2023/06/13 08:20:39;;;;;;;3.20;3.00;;;;;;;33.70;60.13;100480.31;5061685;28;66116;-41
2023/06/13 08:23:12;;;;;;;3.10;2.90;;;;;;;33.64;59.98;100479.44;5047534;28;70480;-42
2023/06/13 08:25:43;;;;;;;3.80;3.50;;;;;;;33.72;60.20;100476.28;5046674;28;65747;-40
2023/06/13 08:28:14;;;;;;;3.72;3.50;;;;;;;33.72;60.02;100481.72;5060222;28;69334;-40
2023/06/13 08:30:46;;;;;;;3.78;3.47;;;;;;;33.64;60.19;100454.94;5065796;28;66482;-41
2023/06/13 08:33:18;;;;;;;4.28;3.88;;;;;;;33.73;60.18;100475.22;5049423;28;69472;-39
2023/06/13 08:35:51;;;;;;;3.72;3.53;;;;;;;33.76;60.01;100474.69;5038222;28;66657;-40
2023/06/13 08:38:24;;;;;;;4.15;3.72;;;;;;;33.76;60.10;100479.31;5065585;28;69282;-40
2023/06/13 08:41:15;;;;;;;3.20;3.00;;;;;;;33.75;60.04;100473.06;5054303;28;65380;-42
2023/06/13 08:43:47;;;;;;;3.67;3.47;;;;;;;33.77;60.17;100475.56;5059692;28;69890;-40
2023/06/13 08:46:19;;;;;;;5.95;3.60;;;;;;;33.77;59.93;100484.53;5058439;28;66817;-40
2023/06/13 08:48:51;;;;;;;3.40;3.20;;;;;;;33.62;59.63;100457.09;5058638;28;69607;-41
2023/06/13 08:51:23;;;;;;;3.40;3.10;;;;;;;33.78;59.92;100483.44;5061396;28;66525;-40
2023/06/13 08:53:59;;;;;;;3.85;3.60;;;;;;;33.78;59.43;100505.22;5036857;28;70363;-39
2023/06/13 08:56:41;;;;;;;5.45;3.75;;;;;;;33.62;59.58;100462.53;5055707;28;66087;-40
2023/06/13 08:59:30;;;;;;;3.42;3.22;;;;;;;32.73;59.29;100319.19;5063077;28;70389;-42
2023/06/13 09:02:03;;;;;;;3.75;3.45;;;;;;;33.84;59.90;100472.63;5060118;28;66480;-42
2023/06/13 09:04:37;;;;;;;3.55;3.35;;;;;;;33.70;59.24;100451.22;5058220;28;69333;-40
2023/06/13 09:07:10;;;;;;;3.65;3.35;;;;;;;33.82;59.68;100467.44;5055812;28;66051;-40
2023/06/13 09:09:42;;;;;;;3.38;3.17;;;;;;;33.01;59.58;100347.38;5061030;28;69097;-42
2023/06/13 09:12:16;;;;;;;3.35;3.13;;;;;;;33.71;59.46;100455.63;5056531;28;66761;-42
2023/06/13 09:14:48;;;;;;;3.65;3.45;;;;;;;33.86;59.56;100481.38;5062499;28;70113;-42
2023/06/13 09:17:19;;;;;;;3.58;3.38;;;;;;;33.77;59.61;100473.66;5054591;28;65307;-40
2023/06/13 09:19:51;;;;;;;5.13;3.53;;;;;;;33.86;59.65;100495.00;5059306;28;71013;-41
2023/06/13 09:22:24;;;;;;;4.72;3.80;;;;;;;33.74;59.67;100487.75;5057272;28;65546;-42
2023/06/13 09:24:56;;;;;;;3.90;3.50;;;;;;;33.86;59.40;100505.88;5054585;28;70434;-40
2023/06/13 09:27:27;;;;;;;3.72;3.42;;;;;;;33.86;59.44;100505.88;5055431;28;66282;-42
2023/06/13 09:30:03;;;;;;;3.50;3.20;;;;;;;33.15;59.22;100397.59;5060247;28;69950;-43
2023/06/13 09:32:35;;;;;;;3.60;3.40;;;;;;;33.80;59.44;100508.50;5055520;28;66490;-42
2023/06/13 09:35:08;;;;;;;4.25;3.95;;;;;;;33.87;59.85;100518.38;5051278;28;70294;-41
2023/06/13 09:37:42;;;;;;;4.25;3.67;;;;;;;33.88;59.48;100517.31;5057778;28;66160;-41
2023/06/13 09:40:14;;;;;;;;;;;;;;;33.59;59.99;100517.41;5067250;28;69568;-41
2023/06/13 09:42:45;;;;;;;3.78;3.33;;;;;;;33.80;59.68;100513.94;5037960;28;65232;-43
2023/06/13 09:45:36;;;;;;;3.70;3.50;;;;;;;33.83;59.85;100518.06;5060415;28;69071;-43
2023/06/13 09:48:08;;;;;;;3.40;3.20;;;;;;;33.84;59.65;100519.72;5062088;28;65787;-40
2023/06/13 09:50:40;;;;;;;3.80;3.50;;;;;;;33.72;59.64;100517.09;5056016;28;69905;-41
2023/06/13 09:53:12;;;;;;;3.80;3.50;;;;;;;33.85;59.67;100542.28;5057028;28;65710;-42
2023/06/13 09:55:44;;;;;;;3.08;2.88;;;;;;;33.86;59.62;100546.69;5057828;28;69728;-39
2023/06/13 09:58:15;;;;;;;;;;;;;;;33.58;59.88;100548.41;5053991;28;66811;-40
2023/06/13 10:01:03;;;;;;;4.00;3.75;;;;;;;33.83;59.70;100549.91;5056654;28;70098;-42
2023/06/13 10:03:34;;;;;;;3.78;3.47;;;;;;;33.84;59.40;100540.66;5056528;28;66528;-40
2023/06/13 10:06:06;;;;;;;3.78;3.47;;;;;;;33.86;59.47;100538.53;5055983;28;70261;-40
2023/06/13 10:08:38;;;;;;;4.25;3.83;;;;;;;33.80;59.63;100524.84;5057282;28;66207;-41
2023/06/13 10:11:15;;;;;;;4.20;3.97;;;;;;;33.83;59.57;100530.84;5055592;28;70547;-41
2023/06/13 10:14:24;;;;;;;4.70;4.15;;;;;;;33.72;59.53;100529.88;5055054;28;65972;-40
2023/06/13 10:17:03;;;;;;;3.75;3.53;;;;;;;33.18;59.28;100435.16;5055501;28;70657;-41
2023/06/13 10:19:40;;;;;;;4.13;3.72;;;;;;;33.30;59.78;100457.66;5055067;28;66215;-40
2023/06/13 10:22:13;;;;;;;4.80;4.40;;;;;;;33.26;59.39;100453.78;5057166;28;70648;-40
2023/06/13 10:24:45;;;;;;;3.83;3.63;;;;;;;33.78;59.64;100551.47;5056989;28;67136;-42
2023/06/13 10:27:19;;;;;;;4.35;4.05;;;;;;;33.63;59.44;100525.91;5055644;28;70416;-41
2023/06/13 10:30:31;;;;;;;9.98;4.68;;;;;;;33.46;61.32;100559.34;5050992;28;66222;-41
2023/06/13 10:33:17;;;;;;;7.07;5.78;;;;;;;33.44;62.02;100557.94;5017078;28;69938;-42
2023/06/13 10:35:54;;;;;;;5.88;5.25;;;;;;;33.40;62.76;100575.78;5054729;28;66412;-43
2023/06/13 10:38:37;;;;;;;6.32;5.50;;;;;;;33.32;63.23;100577.88;5040099;28;69371;-41
2023/06/13 10:41:43;;;;;;;;;;;;;;;33.09;64.47;100588.81;5055510;28;66277;-43
2023/06/13 10:44:49;;;;;;;8.23;6.25;;;;;;;33.18;64.75;100598.22;4972432;28;69930;-42
2023/06/13 10:47:22;;;;;;;10.95;5.57;;;;;;;32.25;64.31;100448.06;5055236;28;65708;-42
2023/06/13 10:49:54;;;;;;;17.48;6.80;;;;;;;33.09;64.86;100594.25;5052409;28;70213;-43
2023/06/13 10:52:25;;;;;;;12.13;5.80;;;;;;;33.23;64.46;100609.22;5056642;28;65388;-41
2023/06/13 10:54:59;;;;;;;6.75;5.65;;;;;;;33.43;63.93;100656.88;5054138;28;70632;-43
2023/06/13 10:57:52;;;;;;;8.70;5.82;;;;;;;33.36;64.54;100666.00;5056783;28;65733;-41
2023/06/13 11:00:27;;;;;;;8.45;6.80;;;;;;;33.43;63.85;100686.78;5054497;28;69945;-41
2023/06/13 11:03:12;;;;;;;7.55;6.75;;;;;;;32.87;63.68;100613.91;5056950;28;66733;-41
2023/06/13 11:05:51;;;;;;;12.57;7.10;;;;;;;33.50;63.56;100737.25;5053946;28;69954;-41
2023/06/13 11:08:24;;;;;;;12.70;6.50;;;;;;;33.56;62.70;100724.59;5056757;28;65894;-42
2023/06/13 11:10:56;;;;;;;8.15;6.53;;;;;;;32.53;63.06;100555.06;5053259;28;69871;-42
2023/06/13 11:13:32;;;;;;;10.75;5.97;;;;;;;32.99;62.96;100626.63;5053772;28;66624;-40
2023/06/13 11:16:49;;;;;;;6.40;5.90;;;;;;;33.43;63.13;100714.78;5055596;28;69262;-43
2023/06/13 11:19:23;;;;;;;7.93;6.60;;;;;;;33.54;62.93;100672.34;5053198;28;65579;-41
2023/06/13 11:22:03;;;;;;;8.00;5.57;;;;;;;33.52;63.23;100678.03;5059464;28;70628;-42
2023/06/13 11:24:36;;;;;;;9.52;6.68;;;;;;;32.83;63.23;100550.25;5054027;28;66322;-43
2023/06/13 11:27:10;;;;;;;8.90;6.30;;;;;;;33.52;63.39;100652.72;5043714;28;70223;-42
2023/06/13 11:29:43;;;;;;;13.52;6.85;;;;;;;32.88;64.04;100560.41;5057874;28;66683;-44
2023/06/13 11:32:16;;;;;;;8.75;6.50;;;;;;;33.25;63.83;100631.53;5054690;28;70563;-42
2023/06/13 11:34:55;;;;;;;8.90;5.43;;;;;;;33.37;63.78;100667.66;5051659;28;66419;-42
2023/06/13 11:37:36;;;;;;;8.75;6.05;;;;;;;33.29;63.94;100654.47;5055215;28;70629;-44
2023/06/13 11:40:08;;;;;;;;;;;;;;;33.10;65.45;100678.28;5056810;28;66442;-41
2023/06/13 11:42:42;;;;;;;11.88;5.95;;;;;;;33.21;64.07;100652.13;5058046;28;70162;-41
2023/06/13 11:45:14;;;;;;;11.52;6.20;;;;;;;33.35;64.24;100669.81;5053629;28;65101;-44
2023/06/13 11:47:46;;;;;;;13.05;6.50;;;;;;;33.27;64.37;100656.59;5051788;28;69955;-40
2023/06/13 11:50:26;;;;;;;11.10;5.80;;;;;;;32.61;64.58;100554.69;5054720;28;66083;-45
2023/06/13 11:53:08;;;;;;;10.45;6.05;;;;;;;33.13;64.85;100650.63;5055738;28;70247;-41
2023/06/13 11:55:40;;;;;;;9.32;6.35;;;;;;;33.31;64.41;100673.25;5059093;28;66333;-45
2023/06/13 11:58:12;;;;;;;14.02;6.85;;;;;;;33.11;66.65;100673.66;5037112;28;70994;-43
2023/06/13 12:00:57;;;;;;;10.38;6.30;;;;;;;32.46;66.87;100595.94;5061346;28;65250;-47